Terminal Aerodrome Forecast
Issued by NWS

Home | Current Version | Previous Version | Text Only | Print | Product List | Glossary On
Versions: 1 2 3 4 5 6 7 8 9 10 11 12 13 14 15 16 17 18 19
143
FTUS45 KTFX 101741
TAFBZN
TAF
KBZN 101741Z 1018/1118 VRB03KT P6SM VCSH SCT050 BKN080
     FM102100 29011KT P6SM SCT080 BKN150 WS020/28035KT
     FM110400 VRB05KT P6SM SCT080 BKN150
     FM111200 VRB05KT P6SM VCSH SCT040 BKN070=

USA.gov is the U.S. government's official web portal to all federal, state and local government web resources and services.